This is the latest recevied weather packets stored in our database for station/object W0DXV. If no packets are shown the sender has not sent any weather packets the latest 1 day(s).
| Time | Temp. | Humidity | Pressure | Rain* | Wind** | Luminosity | Snow |
|---|---|---|---|---|---|---|---|
| 1778028253 | 18.89° C | 59% | 1009.6 hPa | 0 mm | 0 m/s | 0 W/m² | - |
| 1778027949 | 19.44° C | 58% | 1009.5 hPa | 0 mm | 0 m/s | 0 W/m² | - |
| 1778027645 | 20° C | 55% | 1009.5 hPa | 0 mm | 0 m/s | 0 W/m² | - |
| 1778027342 | 20° C | 54% | 1009.4 hPa | 0 mm | 0 m/s | 0 W/m² | - |
| 1778027038 | 20.56° C | 52% | 1009.4 hPa | 0 mm | 0 m/s | 0 W/m² | - |
| 1778026734 | 21.11° C | 51% | 1009.6 hPa | 0 mm | 0 m/s | 1 W/m² | - |
| 1778026431 | 21.11° C | 51% | 1009.3 hPa | 0 mm | 0 m/s | 2 W/m² | - |
| 1778026134 | 21.67° C | 50% | 1009.6 hPa | 0 mm | 0 m/s | 3 W/m² | - |
| 1778025826 | 21.67° C | 50% | 1009.4 hPa | 0 mm | 0 m/s | 5 W/m² | - |
| 1778025522 | 22.22° C | 49% | 1009.3 hPa | 0 mm | 0 m/s | 7 W/m² | - |
| 1778025220 | 22.22° C | 49% | 1009.4 hPa | 0 mm | 0 m/s | 10 W/m² | - |
| 1778024916 | 22.22° C | 48% | 1009.4 hPa | 0 mm | 0 m/s | 11 W/m² | - |
| 1778024615 | 22.78° C | 48% | 1009.2 hPa | 0 mm | 0 m/s | 13 W/m² | - |
| 1778024316 | 22.78° C | 48% | 1009.1 hPa | 0 mm | 0 m/s | 15 W/m² | - |
| 1778024009 | 22.78° C | 47% | 1009.2 hPa | 0 mm | 0 m/s | 18 W/m² | - |
| 1778023706 | 23.33° C | 48% | 1009.3 hPa | 0 mm | 0 m/s | 21 W/m² | - |
| 1778023404 | 23.33° C | 45% | 1009.1 hPa | 0 mm | 0.45 m/s, 243° | 26 W/m² | - |
| 1778023100 | 23.33° C | 45% | 1009.1 hPa | 0 mm | 0 m/s | 36 W/m² | - |
| 1778022798 | 23.89° C | 46% | 1009.1 hPa | 0 mm | 0 m/s | 37 W/m² | - |
| 1778022496 | 23.89° C | 45% | 1009 hPa | 0 mm | 0 m/s | 45 W/m² | - |
| 1778022193 | 23.89° C | 45% | 1009.1 hPa | 0 mm | 0.45 m/s, 208° | 45 W/m² | - |
| 1778021889 | 23.89° C | 47% | 1009.2 hPa | 0 mm | 0 m/s | 45 W/m² | - |
| 1778021587 | 23.89° C | 45% | 1009.2 hPa | 0 mm | 0.45 m/s, 236° | 67 W/m² | - |
| 1778021282 | 23.89° C | 43% | 1009.1 hPa | 0 mm | 0.45 m/s, 249° | 72 W/m² | - |
| 1778020980 | 23.89° C | 43% | 1008.9 hPa | 0 mm | 0 m/s | 78 W/m² | - |
* Rain latest hour (hover to see other rain measurements)
** Current wind speed in m/s (hover to see current wind gust speed)